RYR3232 LEBL-EIDW
Flight info
| Callsign | RYR3232 |
|---|---|
| Flight time | N/A |
| Altitude | 34000 |
| Route | NATPI DCT EVNAM DCT AGN DCT SECHE DCT UVELI DCT CNA DCT MANAK UY110 TIRAV UT183 BAGAD DCT DOLUR DCT UPCAB DCT IJALA DCT EVRIN DCT BUNED BUNED4L |
| Aircraft | B738/M-SDE2E3FGHIRWXY/LB1 |
Departure
| Time | N/A |
|---|---|
| Airport | Josep Tarradellas Barcelona-El Prat Airport (LEBL) |
Arrival
| Time | 2026-05-07 12:32 |
|---|---|
| Airport | Dublin Airport (EIDW) |
| Time | Latitude | Longitude | Altitude | Speed | Heading |
|---|---|---|---|---|---|
| 2026-05-07 12:12 | 50.68097 | -6.09615 | 34026 ft | 461 kts | 348° |
| 2026-05-07 12:13 | 50.74443 | -6.11216 | 34027 ft | 462 kts | 349° |
| 2026-05-07 12:13 | 50.80803 | -6.12792 | 34027 ft | 462 kts | 349° |
| 2026-05-07 12:14 | 50.87122 | -6.14429 | 34025 ft | 463 kts | 349° |
| 2026-05-07 12:14 | 50.93468 | -6.16117 | 34021 ft | 463 kts | 349° |
| 2026-05-07 12:15 | 50.99828 | -6.17823 | 34023 ft | 463 kts | 349° |
| 2026-05-07 12:15 | 51.06183 | -6.19532 | 34021 ft | 463 kts | 349° |
| 2026-05-07 12:16 | 51.12544 | -6.21245 | 34020 ft | 463 kts | 349° |
| 2026-05-07 12:16 | 51.18915 | -6.22965 | 34023 ft | 464 kts | 349° |
| 2026-05-07 12:17 | 51.25243 | -6.24678 | 34022 ft | 464 kts | 349° |
| 2026-05-07 12:17 | 51.31603 | -6.26404 | 34015 ft | 464 kts | 349° |
| 2026-05-07 12:18 | 51.37972 | -6.28138 | 34016 ft | 464 kts | 349° |
| 2026-05-07 12:18 | 51.44337 | -6.29876 | 34022 ft | 464 kts | 349° |
| 2026-05-07 12:19 | 51.50708 | -6.31620 | 34016 ft | 464 kts | 349° |
| 2026-05-07 12:19 | 51.57071 | -6.33367 | 34017 ft | 464 kts | 349° |
| 2026-05-07 12:20 | 51.63465 | -6.35128 | 33525 ft | 469 kts | 349° |
| 2026-05-07 12:20 | 51.66668 | -6.36012 | 32898 ft | 464 kts | 349° |
| 2026-05-07 12:20 | 51.89070 | -6.42178 | 28119 ft | 441 kts | 349° |
| 2026-05-07 12:20 | 52.11893 | -6.48565 | 24516 ft | 402 kts | 348° |
| 2026-05-07 12:21 | 52.33641 | -6.54773 | 20457 ft | 392 kts | 348° |
| 2026-05-07 12:21 | 52.54895 | -6.60885 | 16570 ft | 382 kts | 348° |
| 2026-05-07 12:21 | 52.75632 | -6.65333 | 12674 ft | 362 kts | 357° |
| 2026-05-07 12:21 | 52.94701 | -6.65320 | 9880 ft | 313 kts | 355° |
| 2026-05-07 12:22 | 53.11094 | -6.66772 | 7678 ft | 281 kts | 356° |
| 2026-05-07 12:22 | 53.21016 | -6.67130 | 6352 ft | 269 kts | 358° |
| 2026-05-07 12:22 | 53.22904 | -6.67176 | 6092 ft | 271 kts | 358° |
| 2026-05-07 12:22 | 53.24803 | -6.67233 | 5843 ft | 274 kts | 358° |
| 2026-05-07 12:23 | 53.26716 | -6.67300 | 5564 ft | 274 kts | 357° |
| 2026-05-07 12:23 | 53.28587 | -6.67369 | 5317 ft | 271 kts | 357° |
| 2026-05-07 12:23 | 53.30462 | -6.67448 | 5076 ft | 269 kts | 356° |
| 2026-05-07 12:23 | 53.32327 | -6.67530 | 4817 ft | 267 kts | 357° |
| 2026-05-07 12:24 | 53.34179 | -6.67600 | 4583 ft | 266 kts | 358° |
| 2026-05-07 12:24 | 53.36035 | -6.67680 | 4307 ft | 266 kts | 357° |
| 2026-05-07 12:24 | 53.37868 | -6.67773 | 4053 ft | 259 kts | 358° |
| 2026-05-07 12:24 | 53.39614 | -6.67839 | 3973 ft | 242 kts | 357° |
| 2026-05-07 12:25 | 53.41234 | -6.67914 | 3962 ft | 224 kts | 356° |
| 2026-05-07 12:25 | 53.42726 | -6.67988 | 3975 ft | 204 kts | 355° |
| 2026-05-07 12:25 | 53.44097 | -6.68125 | 3886 ft | 194 kts | 354° |
| 2026-05-07 12:25 | 53.45440 | -6.68278 | 3609 ft | 193 kts | 354° |
| 2026-05-07 12:26 | 53.46773 | -6.68420 | 3358 ft | 190 kts | 357° |
| 2026-05-07 12:26 | 53.48029 | -6.67861 | 3052 ft | 188 kts | 38° |
| 2026-05-07 12:26 | 53.48717 | -6.66173 | 2992 ft | 175 kts | 83° |
| 2026-05-07 12:26 | 53.48552 | -6.64284 | 2975 ft | 160 kts | 128° |
| 2026-05-07 12:27 | 53.47879 | -6.62846 | 3000 ft | 162 kts | 133° |
| 2026-05-07 12:27 | 53.47174 | -6.61323 | 2987 ft | 165 kts | 131° |
| 2026-05-07 12:27 | 53.46642 | -6.59604 | 2988 ft | 165 kts | 118° |
| 2026-05-07 12:27 | 53.46173 | -6.57876 | 2972 ft | 161 kts | 119° |
| 2026-05-07 12:28 | 53.45705 | -6.56162 | 2978 ft | 164 kts | 120° |
| 2026-05-07 12:28 | 53.45234 | -6.54404 | 2980 ft | 168 kts | 112° |
| 2026-05-07 12:28 | 53.45114 | -6.52434 | 2990 ft | 172 kts | 96° |
| 2026-05-07 12:28 | 53.45000 | -6.50411 | 2845 ft | 176 kts | 102° |
| 2026-05-07 12:29 | 53.44873 | -6.48373 | 2613 ft | 173 kts | 100° |
| 2026-05-07 12:29 | 53.44758 | -6.46430 | 2398 ft | 167 kts | 99° |
| 2026-05-07 12:29 | 53.44651 | -6.44553 | 2170 ft | 158 kts | 100° |
| 2026-05-07 12:29 | 53.44549 | -6.42766 | 1970 ft | 154 kts | 101° |
| 2026-05-07 12:30 | 53.44447 | -6.40991 | 1766 ft | 153 kts | 102° |
| 2026-05-07 12:30 | 53.44346 | -6.39228 | 1554 ft | 152 kts | 101° |
| 2026-05-07 12:30 | 53.44243 | -6.37425 | 1344 ft | 154 kts | 101° |
| 2026-05-07 12:30 | 53.44144 | -6.35648 | 1113 ft | 150 kts | 99° |
| 2026-05-07 12:31 | 53.44046 | -6.33917 | 934 ft | 150 kts | 98° |
| 2026-05-07 12:31 | 53.43959 | -6.32189 | 721 ft | 147 kts | 97° |
| 2026-05-07 12:31 | 53.43855 | -6.30516 | 540 ft | 143 kts | 97° |
| 2026-05-07 12:31 | 53.43764 | -6.28874 | 333 ft | 140 kts | 96° |
| 2026-05-07 12:32 | 53.43676 | -6.27259 | 220 ft | 132 kts | 98° |
| 2026-05-07 12:32 | 53.43602 | -6.25979 | 219 ft | 84 kts | 94° |
| 2026-05-07 12:32 | 53.43561 | -6.25377 | 209 ft | 37 kts | 106° |
| 2026-05-07 12:32 | 53.43460 | -6.25033 | 217 ft | 22 kts | 123° |
| 2026-05-07 12:33 | 53.43386 | -6.25183 | 218 ft | 11 kts | 274° |
| 2026-05-07 12:33 | 53.43391 | -6.25315 | 214 ft | 11 kts | 274° |
| 2026-05-07 12:33 | 53.43401 | -6.25443 | 210 ft | 11 kts | 276° |
| 2026-05-07 12:34 | 53.43408 | -6.25568 | 210 ft | 11 kts | 276° |
| 2026-05-07 12:34 | 53.43355 | -6.25641 | 210 ft | 13 kts | 174° |
| 2026-05-07 12:34 | 53.43257 | -6.25578 | 218 ft | 18 kts | 156° |
| 2026-05-07 12:34 | 53.43195 | -6.25490 | 210 ft | 4 kts | 74° |
| 2026-05-07 12:35 | 53.43224 | -6.25463 | 210 ft | 7 kts | 11° |
| 2026-05-07 12:35 | 53.43263 | -6.25463 | 214 ft | 2 kts | 356° |
| 2026-05-07 12:35 | 53.43271 | -6.25464 | 212 ft | 0 kts | 357° |